Maple Grove, MN (55311)

4:38 PM CDT on April 19, 2015 (GMT -0500)
North Rice Lake | | Change Station
CLOSE
Current Station
Personal Weather Station
Location: Maple Grove, MN
Elevation: 896 ft
Nearby Weather Stations

Elev 896 ft 45.12 °N, 93.48 °W | Updated 20 minutes ago

Overcast
Overcast
54.0 °F
Feels Like 54.0 °F
N
5.8
Wind Variable Wind from North

Today
High -- | Low -- °F
--% Chance of Precip.
Yesterday
High -- | Low -- °F
Precip. -- in
6:22 AM 8:04 PM
New Moon, 2% visible
Pressure 29.60 in
Visibility 10.0 miles
Clouds Overcast 3000 ft
Dew Point 53 °F
Humidity 98%
Rainfall 0.07 in
Snow Depth Not available.
UV 2 out of 12
Pollen 2.00 out of 12
Air Quality Not available.
Flu Activity Local Activity
METAR KMIC 192053Z 29013KT 10SM OVC030 14/08 A2959 RMK AO2 SLP021 T01440078 58007

More Conditions Fewer Conditions

Pressure 29.60 in
Visibility 10.0 miles
Clouds Overcast 3000 ft
Dew Point 53 °F
Humidity 98%
Rainfall 0.07 in
Snow Depth Not available.
UV 2 out of 12
Pollen 2.00 out of 12
Air Quality Not available.
Flu Activity Local Activity
METAR KMIC 192053Z 29013KT 10SM OVC030 14/08 A2959 RMK AO2 SLP021 T01440078 58007

More Conditions Fewer Conditions

10-Day Weather Forecast

Almanac

Astronomy

Apr. 19, 2015 Rise Set
Actual Time
Civil Twilight
Nautical Twilight
Astronomical Twilight
Moon
Length of Visible Light
Length of Day
Tomorrow will be .
, % of the Moon is Illuminated

Today's Extremes

State Highs State Lows

Community

WunderPhotos

Upload Photos

1,814,993 photos uploaded!

WunderBlogs® & News

Nearby

Air Quality

  Air Quality AQ Index Pollutant
Not available.

Snow Depth

Station Depth Elevation

Earthquake Activity

City Distance Mag. Time & Date
Minimum magnitude displayed is 2.5.

Coastal Water Temperatures

Place Temperature

Stations

Nearby Weather Stations

Station Location Temp. Windchill Dew Point Humidity Wind Precip. Elev Updated Type